This is the latest recevied weather packets stored in our database for station/object SV1BYK-4. If no packets are shown the sender has not sent any weather packets the latest 10 day(s).
| Time | Temp. | Humidity | Pressure | Rain* | Wind** | Luminosity | Snow |
|---|---|---|---|---|---|---|---|
| 1777384295 | 25° C | 37% | 1012.6 hPa | 0 mm | - | 0 W/m² | - |
| 1777378355 | 23.89° C | 39% | 1013.4 hPa | 0 mm | - | 0 W/m² | - |
| 1777376735 | 24.44° C | 38% | 1013.7 hPa | 0 mm | - | 0 W/m² | - |
| 1777375115 | 23.89° C | 40% | 1013.7 hPa | 0 mm | - | 0 W/m² | - |
| 1777372415 | 24.44° C | 37% | 1014.4 hPa | 0 mm | - | 0 W/m² | - |
| 1777370795 | 23.89° C | 38% | 1014.7 hPa | 0 mm | - | 0 W/m² | - |
| 1777370255 | 23.33° C | 39% | 1014.7 hPa | 0 mm | - | 0 W/m² | - |
| 1777367555 | 23.89° C | 37% | 1015.1 hPa | 0 mm | - | 0 W/m² | - |
| 1777362155 | 21.67° C | 42% | 1015.5 hPa | 0 mm | - | 0 W/m² | - |
| 1777359995 | 21.67° C | 42% | 1015.7 hPa | 0 mm | - | 0 W/m² | - |
| 1777357835 | 20.56° C | 44% | 1015.6 hPa | 0 mm | - | 0 W/m² | - |
| 1777357295 | 20° C | 46% | 1015.7 hPa | 0 mm | - | 0 W/m² | - |
| 1777354055 | 17.78° C | 50% | 1015.7 hPa | 0 mm | - | 0 W/m² | - |
| 1777352435 | 16.67° C | 51% | 1015.5 hPa | 0 mm | - | 0 W/m² | - |
| 1777351895 | 16.11° C | 51% | 1015.5 hPa | 0 mm | - | 0 W/m² | - |
| 1777349195 | 15.56° C | 52% | 1014.8 hPa | 0 mm | - | 0 W/m² | - |
| 1777348115 | 15° C | 53% | 1014.7 hPa | 0 mm | - | 0 W/m² | - |
| 1777345955 | 15.56° C | 52% | 1014.5 hPa | 0 mm | - | 0 W/m² | - |
| 1777336775 | 16.67° C | 48% | 1014.7 hPa | 0 mm | - | 0 W/m² | - |
| 1777336235 | 16.67° C | 47% | 1014.6 hPa | 0 mm | - | 0 W/m² | - |
| 1777325435 | 17.78° C | 37% | 1015.4 hPa | 0 mm | - | 0 W/m² | - |
| 1777324355 | 17.78° C | 37% | 1015.5 hPa | 0 mm | - | 0 W/m² | - |
| 1777323275 | 17.78° C | 38% | 1016 hPa | 0 mm | - | 0 W/m² | - |
| 1777322195 | 17.78° C | 38% | 1016.3 hPa | 0 mm | - | 0 W/m² | - |
| 1777321655 | 17.78° C | 38% | 1016.1 hPa | 0 mm | - | 0 W/m² | - |
* Rain latest hour (hover to see other rain measurements)
** Current wind speed in m/s (hover to see current wind gust speed)